Station Historical Data
Daily Summary for November 5, 2017 Units:  English    Metric   Both
Next Day »
Daily Weekly Monthly Yearly Custom
  High: Low: Average:
Temperature: 47.6 °F 37.6 °F 41.4 °F
Dew Point: 43.2 °F 34.7 °F 38 °F
Humidity: 89% 81% 88%
Wind Speed: 8.0mph 0.0mph 0.5mph
Wind Gust: 10.0mph - -
Wind- - SSE
Pressure: 30.21 in 30.07 in -
Precipitation: 0.00 in    
Historical Graphs
 
 
Tabular Data for November 5, 2017
Time Temperature Dew Point Pressure Wind Wind Speed Wind Gust Humidity Rainfall Rate (Hourly) solar Conditions
00:02 44.1 °F 41.1 °F 30.07 in Calm     89% 0.00 in 0.00 W/m2
00:07 44.1 °F 41.1 °F 30.08 in Calm     89% 0.00 in 0.00 W/m2
00:12 44.1 °F 41.1 °F 30.08 in Calm     89% 0.00 in 0.00 W/m2
00:17 44.2 °F 41.2 °F 30.08 in Calm     89% 0.00 in 0.00 W/m2
00:23 44.2 °F 41.2 °F 30.08 in Calm     89% 0.00 in 0.00 W/m2
00:28 44.2 °F 41.2 °F 30.08 in Calm     89% 0.00 in 0.00 W/m2
00:33 44.2 °F 41.2 °F 30.08 in Calm     89% 0.00 in 0.00 W/m2
00:38 44.2 °F 41.2 °F 30.08 in Calm     89% 0.00 in 0.00 W/m2
00:43 44.2 °F 41.2 °F 30.08 in Calm     89% 0.00 in 0.00 W/m2
00:48 44.1 °F 41.1 °F 30.08 in Calm     89% 0.00 in 0.00 W/m2
00:53 44.0 °F 41.0 °F 30.08 in Calm     89% 0.00 in 0.00 W/m2
00:58 43.8 °F 40.8 °F 30.09 in Calm     89% 0.00 in 0.00 W/m2
01:00 40.2 °F 37.2 °F 30.09 in Calm     89% 0.00 in 0.00 W/m2
01:01 40.2 °F 37.2 °F 30.09 in Calm     89% 0.00 in 0.00 W/m2
01:02 40.2 °F 37.2 °F 30.09 in Calm     89% 0.00 in 0.00 W/m2
01:03 43.6 °F 40.6 °F 30.08 in Calm     89% 0.00 in 0.00 W/m2
01:04 40.2 °F 37.2 °F 30.09 in Calm     89% 0.00 in 0.00 W/m2
01:05 40.1 °F 37.1 °F 30.09 in Calm     89% 0.00 in 0.00 W/m2
01:06 40.1 °F 37.1 °F 30.09 in Calm     89% 0.00 in 0.00 W/m2
01:07 40.1 °F 37.1 °F 30.09 in Calm     89% 0.00 in 0.00 W/m2
01:08 43.3 °F 40.3 °F 30.09 in Calm     89% 0.00 in 0.00 W/m2
01:09 40.1 °F 37.1 °F 30.09 in Calm     89% 0.00 in 0.00 W/m2
01:10 40.0 °F 37.0 °F 30.09 in Calm     89% 0.00 in 0.00 W/m2
01:11 40.0 °F 37.0 °F 30.09 in Calm     89% 0.00 in 0.00 W/m2
01:12 40.0 °F 37.0 °F 30.09 in Calm     89% 0.00 in 0.00 W/m2
01:13 43.0 °F 40.0 °F 30.09 in Calm     89% 0.00 in 0.00 W/m2
01:14 39.9 °F 36.9 °F 30.09 in Calm     89% 0.00 in 0.00 W/m2
01:15 39.9 °F 36.9 °F 30.08 in Calm     89% 0.00 in 0.00 W/m2
01:16 39.8 °F 36.8 °F 30.09 in Calm     89% 0.00 in 0.00 W/m2
01:17 39.8 °F 36.8 °F 30.08 in Calm     89% 0.00 in 0.00 W/m2
01:18 42.4 °F 39.4 °F 30.08 in Calm     89% 0.00 in 0.00 W/m2
01:19 39.8 °F 36.8 °F 30.08 in Calm     89% 0.00 in 0.00 W/m2
01:20 39.8 °F 36.8 °F 30.09 in Calm     89% 0.00 in 0.00 W/m2
01:21 39.8 °F 36.8 °F 30.08 in Calm     89% 0.00 in 0.00 W/m2
01:22 39.8 °F 36.8 °F 30.08 in Calm     89% 0.00 in 0.00 W/m2
01:23 42.2 °F 39.2 °F 30.09 in Calm     89% 0.00 in 0.00 W/m2
01:24 39.7 °F 36.7 °F 30.08 in Calm     89% 0.00 in 0.00 W/m2
01:25 39.7 °F 36.7 °F 30.08 in Calm     89% 0.00 in 0.00 W/m2
01:26 39.7 °F 36.7 °F 30.08 in Calm     89% 0.00 in 0.00 W/m2
01:27 39.7 °F 36.7 °F 30.09 in Calm     89% 0.00 in 0.00 W/m2
01:28 42.1 °F 39.1 °F 30.09 in Calm     89% 0.00 in 0.00 W/m2
01:29 39.7 °F 36.7 °F 30.08 in Calm     89% 0.00 in 0.00 W/m2
01:30 39.7 °F 36.7 °F 30.08 in Calm     89% 0.00 in 0.00 W/m2
01:31 39.7 °F 36.7 °F 30.08 in Calm     89% 0.00 in 0.00 W/m2
01:32 39.6 °F 36.6 °F 30.08 in Calm     89% 0.00 in 0.00 W/m2
01:33 41.9 °F 38.9 °F 30.09 in Calm     89% 0.00 in 0.00 W/m2
01:34 39.7 °F 36.7 °F 30.08 in Calm     89% 0.00 in 0.00 W/m2
01:35 39.6 °F 36.6 °F 30.08 in Calm     89% 0.00 in 0.00 W/m2
01:38 41.4 °F 38.4 °F 30.09 in Calm     89% 0.00 in 0.00 W/m2
01:39 39.6 °F 36.6 °F 30.08 in Calm     89% 0.00 in 0.00 W/m2
01:40 39.6 °F 36.6 °F 30.09 in Calm     89% 0.00 in 0.00 W/m2
01:43 41.1 °F 38.1 °F 30.09 in Calm     89% 0.00 in 0.00 W/m2
01:48 40.6 °F 37.6 °F 30.09 in Calm     89% 0.00 in 0.00 W/m2
01:53 40.4 °F 37.4 °F 30.09 in Calm     89% 0.00 in 0.00 W/m2
01:14 39.8 °F 36.8 °F 30.08 in Calm     89% 0.00 in 0.00 W/m2
01:19 39.7 °F 36.7 °F 30.08 in Calm     89% 0.00 in 0.00 W/m2
01:24 39.7 °F 36.7 °F 30.09 in Calm     89% 0.00 in 0.00 W/m2
01:29 39.7 °F 36.7 °F 30.08 in Calm     89% 0.00 in 0.00 W/m2
01:34 39.6 °F 36.6 °F 30.08 in Calm     89% 0.00 in 0.00 W/m2
01:39 39.5 °F 36.5 °F 30.09 in Calm     89% 0.00 in 0.00 W/m2
01:45 39.5 °F 36.5 °F 30.09 in Calm     89% 0.00 in 0.00 W/m2
01:50 39.4 °F 36.4 °F 30.08 in Calm     89% 0.00 in 0.00 W/m2
01:55 39.2 °F 36.2 °F 30.09 in Calm     89% 0.00 in 0.00 W/m2
02:00 39.0 °F 36.0 °F 30.08 in Calm     89% 0.00 in 0.00 W/m2
02:05 39.0 °F 36.0 °F 30.08 in Calm     89% 0.00 in 0.00 W/m2
02:10 38.9 °F 35.9 °F 30.09 in Calm     89% 0.00 in 0.00 W/m2
02:15 38.8 °F 35.8 °F 30.09 in Calm     89% 0.00 in 0.00 W/m2
02:20 38.8 °F 35.8 °F 30.09 in Calm     89% 0.00 in 0.00 W/m2
02:25 38.8 °F 35.8 °F 30.09 in Calm     89% 0.00 in 0.00 W/m2
02:30 38.8 °F 35.8 °F 30.09 in Calm     89% 0.00 in 0.00 W/m2
02:35 38.8 °F 35.8 °F 30.09 in Calm     89% 0.00 in 0.00 W/m2
02:40 38.7 °F 35.7 °F 30.09 in Calm     89% 0.00 in 0.00 W/m2
02:45 38.7 °F 35.7 °F 30.09 in Calm     89% 0.00 in 0.00 W/m2
02:50 38.5 °F 35.5 °F 30.09 in Calm     89% 0.00 in 0.00 W/m2
02:55 38.4 °F 35.5 °F 30.09 in Calm     89% 0.00 in 0.00 W/m2
03:00 38.3 °F 35.3 °F 30.09 in Calm     89% 0.00 in 0.00 W/m2
03:05 38.2 °F 35.2 °F 30.09 in Calm   2.0 mph 89% 0.00 in 0.00 W/m2
03:10 38.0 °F 35.0 °F 30.09 in Calm     89% 0.00 in 0.00 W/m2
03:15 37.9 °F 35.0 °F 30.09 in Calm   2.0 mph 89% 0.00 in 0.00 W/m2
03:20 37.8 °F 34.9 °F 30.09 in Calm     89% 0.00 in 0.00 W/m2
03:25 37.7 °F 34.8 °F 30.09 in Calm     89% 0.00 in 0.00 W/m2
03:30 37.6 °F 34.7 °F 30.09 in Calm     89% 0.00 in 0.00 W/m2
03:36 37.6 °F 34.7 °F 30.10 in SSE 2.0 mph 2.0 mph 89% 0.00 in 0.00 W/m2
03:41 37.6 °F 34.7 °F 30.09 in SSE 1.0 mph 1.0 mph 89% 0.00 in 0.00 W/m2
03:46 37.6 °F 34.7 °F 30.10 in Calm   2.0 mph 89% 0.00 in 0.00 W/m2
03:51 37.6 °F 34.7 °F 30.09 in Calm     89% 0.00 in 0.00 W/m2
03:56 37.7 °F 34.8 °F 30.10 in SSE 4.0 mph 4.0 mph 89% 0.00 in 0.00 W/m2
04:01 37.7 °F 34.8 °F 30.10 in Calm   1.0 mph 89% 0.00 in 0.00 W/m2
04:06 37.8 °F 34.9 °F 30.10 in SSE 1.0 mph 4.0 mph 89% 0.00 in 0.00 W/m2
04:11 37.8 °F 34.9 °F 30.10 in Calm     89% 0.00 in 0.00 W/m2
04:16 37.9 °F 35.0 °F 30.10 in SSE 1.0 mph 6.0 mph 89% 0.00 in 0.00 W/m2
04:21 37.9 °F 35.0 °F 30.10 in SSE 1.0 mph 4.0 mph 89% 0.00 in 0.00 W/m2
04:26 37.9 °F 35.0 °F 30.10 in SSE 2.0 mph 6.0 mph 89% 0.00 in 0.00 W/m2
04:31 37.9 °F 35.0 °F 30.10 in Calm   1.0 mph 89% 0.00 in 0.00 W/m2
04:36 37.9 °F 35.0 °F 30.10 in Calm   4.0 mph 89% 0.00 in 0.00 W/m2
04:41 37.9 °F 35.0 °F 30.10 in Calm   1.0 mph 89% 0.00 in 0.00 W/m2
04:46 37.9 °F 35.0 °F 30.11 in Calm     89% 0.00 in 0.00 W/m2
04:51 37.8 °F 34.9 °F 30.11 in Calm     89% 0.00 in 0.00 W/m2
04:56 37.7 °F 34.8 °F 30.11 in Calm     89% 0.00 in 0.00 W/m2
05:01 37.8 °F 34.9 °F 30.11 in Calm     89% 0.00 in 0.00 W/m2
05:06 37.8 °F 34.9 °F 30.11 in Calm   1.0 mph 89% 0.00 in 0.00 W/m2
05:11 37.9 °F 35.0 °F 30.11 in Calm   5.0 mph 89% 0.00 in 0.00 W/m2
05:16 37.9 °F 35.0 °F 30.12 in SSE 2.0 mph 6.0 mph 89% 0.00 in 0.00 W/m2
05:21 37.9 °F 35.0 °F 30.11 in Calm   8.0 mph 89% 0.00 in 0.00 W/m2
05:26 38.0 °F 35.0 °F 30.12 in SSE 1.0 mph 5.0 mph 89% 0.00 in 0.00 W/m2
05:31 38.0 °F 35.0 °F 30.12 in SSE 5.0 mph 5.0 mph 89% 0.00 in 0.00 W/m2
05:36 38.0 °F 35.0 °F 30.12 in SSE 5.0 mph 5.0 mph 89% 0.00 in 0.00 W/m2
05:41 37.9 °F 35.0 °F 30.12 in Calm   4.0 mph 89% 0.00 in 0.00 W/m2
05:46 37.9 °F 35.0 °F 30.12 in SSE 1.0 mph 1.0 mph 89% 0.00 in 0.00 W/m2
05:51 38.0 °F 35.0 °F 30.12 in Calm   8.0 mph 89% 0.00 in 0.00 W/m2
05:56 38.0 °F 35.0 °F 30.12 in Calm     89% 0.00 in 0.00 W/m2
06:01 38.0 °F 35.0 °F 30.12 in Calm   5.0 mph 89% 0.00 in 0.00 W/m2
06:06 38.0 °F 35.0 °F 30.12 in SSE 4.0 mph 6.0 mph 89% 0.00 in 0.00 W/m2
06:11 38.0 °F 35.0 °F 30.12 in Calm   6.0 mph 89% 0.00 in 0.00 W/m2
06:16 38.0 °F 35.0 °F 30.12 in SSE 2.0 mph 2.0 mph 89% 0.00 in 0.00 W/m2
06:17 38.0 °F 35.0 °F 30.12 in SSE 1.0 mph 5.0 mph 89% 0.00 in 0.00 W/m2
06:22 38.0 °F 35.0 °F 30.12 in SSE 4.0 mph 7.0 mph 89% 0.00 in 0.00 W/m2
06:27 38.1 °F 35.2 °F 30.13 in Calm   6.0 mph 89% 0.00 in 0.00 W/m2
06:32 38.1 °F 35.2 °F 30.13 in Calm   8.0 mph 89% 0.00 in 0.00 W/m2
06:38 38.2 °F 35.2 °F 30.13 in Calm   8.0 mph 89% 0.00 in 0.00 W/m2
06:43 38.2 °F 35.2 °F 30.13 in Calm   6.0 mph 89% 0.00 in 5.00 W/m2
06:48 38.2 °F 35.2 °F 30.13 in SSE 2.0 mph 2.0 mph 89% 0.00 in 5.00 W/m2
06:53 38.2 °F 35.2 °F 30.13 in Calm   7.0 mph 89% 0.00 in 7.00 W/m2
06:58 38.2 °F 35.2 °F 30.14 in SE 5.0 mph 6.0 mph 89% 0.00 in 9.00 W/m2
07:03 38.2 °F 35.2 °F 30.14 in Calm   5.0 mph 89% 0.00 in 12.00 W/m2
07:08 38.2 °F 35.2 °F 30.14 in Calm   2.0 mph 89% 0.00 in 14.00 W/m2
07:13 38.2 °F 35.2 °F 30.15 in Calm   2.0 mph 89% 0.00 in 16.00 W/m2
07:18 38.2 °F 35.2 °F 30.15 in Calm   6.0 mph 89% 0.00 in 19.00 W/m2
07:23 38.2 °F 35.2 °F 30.15 in Calm     89% 0.00 in 25.00 W/m2
07:28 38.2 °F 35.2 °F 30.15 in Calm     89% 0.00 in 26.00 W/m2
07:33 38.3 °F 35.3 °F 30.15 in Calm     89% 0.00 in 32.00 W/m2
07:38 38.3 °F 35.3 °F 30.16 in Calm   6.0 mph 89% 0.00 in 33.00 W/m2
07:43 38.4 °F 35.5 °F 30.16 in Calm     89% 0.00 in 40.00 W/m2
07:44 38.4 °F 35.5 °F 30.16 in Calm     89% 0.00 in 42.00 W/m2
07:49 38.4 °F 35.5 °F 30.16 in Calm     89% 0.00 in 40.00 W/m2
07:55 38.5 °F 35.5 °F 30.16 in Calm     89% 0.00 in 46.00 W/m2
08:00 38.6 °F 35.6 °F 30.17 in Calm     89% 0.00 in 54.00 W/m2
08:05 38.7 °F 35.7 °F 30.16 in Calm   6.0 mph 89% 0.00 in 60.00 W/m2
08:10 38.8 °F 35.8 °F 30.17 in Calm     89% 0.00 in 63.00 W/m2
08:15 38.9 °F 35.9 °F 30.17 in Calm   5.0 mph 89% 0.00 in 86.00 W/m2
08:20 39.0 °F 36.0 °F 30.17 in SE 2.0 mph 6.0 mph 89% 0.00 in 97.00 W/m2
08:25 39.1 °F 36.1 °F 30.17 in SSE 1.0 mph 8.0 mph 89% 0.00 in 104.00 W/m2
08:30 39.1 °F 36.1 °F 30.17 in Calm   6.0 mph 89% 0.00 in 98.00 W/m2
08:35 39.1 °F 36.1 °F 30.18 in SSE 4.0 mph 7.0 mph 89% 0.00 in 84.00 W/m2
08:40 39.2 °F 36.2 °F 30.18 in Calm   5.0 mph 89% 0.00 in 104.00 W/m2
08:45 39.2 °F 36.2 °F 30.18 in Calm   6.0 mph 89% 0.00 in 102.00 W/m2
08:50 39.3 °F 36.3 °F 30.18 in Calm   7.0 mph 89% 0.00 in 114.00 W/m2
08:55 39.3 °F 36.3 °F 30.18 in SSE 2.0 mph 8.0 mph 89% 0.00 in 134.00 W/m2
08:56 39.3 °F 36.3 °F 30.18 in Calm     89% 0.00 in 128.00 W/m2
09:00 39.3 °F 36.3 °F 30.19 in Calm   4.0 mph 89% 0.00 in 123.00 W/m2
09:05 39.2 °F 36.2 °F 30.19 in Calm   1.0 mph 89% 0.00 in 95.00 W/m2
09:10 39.2 °F 36.2 °F 30.19 in Calm   6.0 mph 89% 0.00 in 102.00 W/m2
09:15 39.3 °F 36.3 °F 30.19 in Calm   6.0 mph 89% 0.00 in 120.00 W/m2
09:20 39.3 °F 36.3 °F 30.19 in Calm   7.0 mph 89% 0.00 in 158.00 W/m2
09:25 39.4 °F 36.4 °F 30.19 in SSE 2.0 mph 8.0 mph 89% 0.00 in 113.00 W/m2
09:30 39.6 °F 36.6 °F 30.19 in SSE 5.0 mph 8.0 mph 89% 0.00 in 113.00 W/m2
09:35 39.7 °F 36.7 °F 30.19 in Calm   9.0 mph 89% 0.00 in 114.00 W/m2
09:40 39.7 °F 36.7 °F 30.20 in SSE 6.0 mph 8.0 mph 89% 0.00 in 135.00 W/m2
09:45 39.8 °F 36.8 °F 30.20 in Calm   7.0 mph 89% 0.00 in 156.00 W/m2
09:50 39.9 °F 36.9 °F 30.20 in SSE 4.0 mph 8.0 mph 89% 0.00 in 144.00 W/m2
09:55 40.0 °F 37.0 °F 30.20 in SSE 6.0 mph 8.0 mph 89% 0.00 in 141.00 W/m2
10:00 40.0 °F 37.0 °F 30.20 in Calm   8.0 mph 89% 0.00 in 192.00 W/m2
10:05 40.1 °F 36.8 °F 30.20 in Calm   7.0 mph 88% 0.00 in 199.00 W/m2
10:10 40.2 °F 36.9 °F 30.20 in SSE 8.0 mph 8.0 mph 88% 0.00 in 229.00 W/m2
10:15 40.3 °F 37.0 °F 30.20 in SSE 2.0 mph 10.0 mph 88% 0.00 in 288.00 W/m2
10:20 40.4 °F 37.1 °F 30.21 in SSE 5.0 mph 7.0 mph 88% 0.00 in 209.00 W/m2
10:25 40.6 °F 37.3 °F 30.21 in Calm   8.0 mph 88% 0.00 in 288.00 W/m2
10:30 40.8 °F 37.2 °F 30.21 in Calm   1.0 mph 87% 0.00 in 327.00 W/m2
10:35 41.0 °F 37.7 °F 30.21 in SSE 2.0 mph 5.0 mph 88% 0.00 in 304.00 W/m2
10:40 41.2 °F 37.9 °F 30.21 in Calm   4.0 mph 88% 0.00 in 652.00 W/m2
10:45 41.5 °F 38.2 °F 30.21 in Calm   4.0 mph 88% 0.00 in 548.00 W/m2
10:50 41.7 °F 38.4 °F 30.21 in Calm   5.0 mph 88% 0.00 in 737.00 W/m2
10:55 42.0 °F 38.7 °F 30.21 in Calm     88% 0.00 in 619.00 W/m2
11:00 42.2 °F 38.6 °F 30.20 in Calm     87% 0.00 in 172.00 W/m2
11:05 42.4 °F 38.8 °F 30.20 in Calm   1.0 mph 87% 0.00 in 485.00 W/m2
11:10 42.7 °F 39.1 °F 30.20 in South 6.0 mph 6.0 mph 87% 0.00 in 671.00 W/m2
11:15 42.8 °F 39.2 °F 30.20 in Calm     87% 0.00 in 687.00 W/m2
11:21 42.8 °F 38.9 °F 30.20 in South 1.0 mph 1.0 mph 86% 0.00 in 283.00 W/m2
11:26 43.0 °F 38.8 °F 30.20 in South 1.0 mph 4.0 mph 85% 0.00 in 278.00 W/m2
11:31 43.1 °F 39.2 °F 30.20 in South 4.0 mph 4.0 mph 86% 0.00 in 624.00 W/m2
11:36 43.3 °F 39.1 °F 30.20 in Calm     85% 0.00 in 200.00 W/m2
11:41 43.6 °F 39.4 °F 30.20 in SSE 7.0 mph 7.0 mph 85% 0.00 in 316.00 W/m2
11:46 43.6 °F 39.4 °F 30.19 in SSE 6.0 mph 6.0 mph 85% 0.00 in 714.00 W/m2
11:51 43.8 °F 39.6 °F 30.19 in SSE 2.0 mph 5.0 mph 85% 0.00 in 659.00 W/m2
11:56 43.9 °F 39.7 °F 30.19 in Calm   2.0 mph 85% 0.00 in 624.00 W/m2
12:01 44.0 °F 39.5 °F 30.19 in SSE 1.0 mph 5.0 mph 84% 0.00 in 645.00 W/m2
12:06 44.0 °F 39.5 °F 30.18 in Calm     84% 0.00 in 642.00 W/m2
12:11 44.2 °F 39.7 °F 30.18 in Calm   2.0 mph 84% 0.00 in 654.00 W/m2
12:16 44.3 °F 39.8 °F 30.18 in Calm   5.0 mph 84% 0.00 in 698.00 W/m2
12:21 44.5 °F 40.0 °F 30.17 in SSE 2.0 mph 5.0 mph 84% 0.00 in 628.00 W/m2
12:26 44.5 °F 39.7 °F 30.17 in SSE 4.0 mph 4.0 mph 83% 0.00 in 601.00 W/m2
12:31 44.7 °F 39.9 °F 30.17 in SSE 1.0 mph 4.0 mph 83% 0.00 in 596.00 W/m2
12:36 44.8 °F 40.0 °F 30.17 in SSE 4.0 mph 4.0 mph 83% 0.00 in 626.00 W/m2
12:41 45.0 °F 40.5 °F 30.17 in Calm   2.0 mph 84% 0.00 in 624.00 W/m2
12:46 45.0 °F 39.8 °F 30.17 in South 2.0 mph 4.0 mph 82% 0.00 in 582.00 W/m2
12:51 45.2 °F 40.0 °F 30.17 in Calm   6.0 mph 82% 0.00 in 575.00 W/m2
12:56 45.4 °F 40.5 °F 30.17 in South 4.0 mph 9.0 mph 83% 0.00 in 568.00 W/m2
13:01 45.6 °F 40.7 °F 30.17 in Calm   4.0 mph 83% 0.00 in 566.00 W/m2
13:06 45.7 °F 40.5 °F 30.17 in Calm     82% 0.00 in 547.00 W/m2
13:11 45.8 °F 40.9 °F 30.17 in Calm     83% 0.00 in 512.00 W/m2
13:16 45.9 °F 41.0 °F 30.16 in Calm     83% 0.00 in 570.00 W/m2
13:21 46.0 °F 41.1 °F 30.16 in Calm     83% 0.00 in 533.00 W/m2
13:26 46.3 °F 41.7 °F 30.16 in Calm   5.0 mph 84% 0.00 in 534.00 W/m2
13:31 46.3 °F 41.7 °F 30.16 in Calm     84% 0.00 in 513.00 W/m2
13:36 46.4 °F 41.8 °F 30.16 in South 1.0 mph 6.0 mph 84% 0.00 in 497.00 W/m2
13:41 46.4 °F 41.2 °F 30.16 in South 2.0 mph 2.0 mph 82% 0.00 in 501.00 W/m2
13:47 46.5 °F 41.3 °F 30.16 in South 1.0 mph 4.0 mph 82% 0.00 in 489.00 W/m2
13:52 46.8 °F 41.6 °F 30.16 in Calm   7.0 mph 82% 0.00 in 522.00 W/m2
13:57 46.8 °F 41.3 °F 30.16 in Calm   6.0 mph 81% 0.00 in 192.00 W/m2
14:02 46.9 °F 41.4 °F 30.16 in SSE 5.0 mph 5.0 mph 81% 0.00 in 165.00 W/m2
14:07 46.9 °F 41.7 °F 30.16 in Calm     82% 0.00 in 144.00 W/m2
14:12 46.9 °F 41.7 °F 30.15 in Calm     82% 0.00 in 220.00 W/m2
14:17 47.0 °F 42.1 °F 30.15 in SSE 5.0 mph 6.0 mph 83% 0.00 in 529.00 W/m2
14:22 47.0 °F 42.1 °F 30.15 in Calm   1.0 mph 83% 0.00 in 459.00 W/m2
14:27 47.1 °F 42.2 °F 30.14 in SSE 2.0 mph 7.0 mph 83% 0.00 in 462.00 W/m2
14:32 47.3 °F 42.1 °F 30.15 in SE 2.0 mph 8.0 mph 82% 0.00 in 190.00 W/m2
14:37 47.5 °F 42.6 °F 30.15 in Calm   2.0 mph 83% 0.00 in 257.00 W/m2
14:42 47.5 °F 42.6 °F 30.14 in Calm   4.0 mph 83% 0.00 in 364.00 W/m2
14:47 47.6 °F 42.7 °F 30.15 in Calm   4.0 mph 83% 0.00 in 374.00 W/m2
14:52 47.6 °F 42.7 °F 30.15 in SSE 4.0 mph 6.0 mph 83% 0.00 in 135.00 W/m2
14:57 47.6 °F 42.7 °F 30.15 in SSE 4.0 mph 6.0 mph 83% 0.00 in 120.00 W/m2
15:02 47.5 °F 42.3 °F 30.15 in Calm   7.0 mph 82% 0.00 in 118.00 W/m2
15:07 47.6 °F 42.7 °F 30.15 in SSE 2.0 mph 6.0 mph 83% 0.00 in 142.00 W/m2
15:12 47.6 °F 42.7 °F 30.15 in Calm     83% 0.00 in 149.00 W/m2
15:17 47.6 °F 42.7 °F 30.14 in Calm   1.0 mph 83% 0.00 in 315.00 W/m2
15:22 47.6 °F 43.0 °F 30.14 in Calm     84% 0.00 in 262.00 W/m2
15:27 47.6 °F 43.0 °F 30.15 in Calm     84% 0.00 in 111.00 W/m2
15:32 47.5 °F 42.9 °F 30.14 in Calm     84% 0.00 in 130.00 W/m2
15:37 47.5 °F 43.2 °F 30.14 in SSE 1.0 mph 5.0 mph 85% 0.00 in 83.00 W/m2
15:42 47.5 °F 43.2 °F 30.14 in Calm   4.0 mph 85% 0.00 in 67.00 W/m2
15:52 47.3 °F 43.0 °F 30.14 in Calm     85% 0.00 in 146.00 W/m2
15:57 47.2 °F 42.9 °F 30.14 in Calm     85% 0.00 in 128.00 W/m2
16:02 47.1 °F 42.8 °F 30.14 in Calm     85% 0.00 in 109.00 W/m2
16:07 47.1 °F 43.1 °F 30.14 in Calm     86% 0.00 in 91.00 W/m2
16:12 47.1 °F 43.1 °F 30.14 in Calm     86% 0.00 in 76.00 W/m2
16:17 47.0 °F 43.0 °F 30.14 in Calm     86% 0.00 in 60.00 W/m2
16:22 46.9 °F 43.2 °F 30.14 in Calm     87% 0.00 in 47.00 W/m2
16:27 46.7 °F 43.0 °F 30.14 in Calm     87% 0.00 in 37.00 W/m2
16:32 46.6 °F 42.9 °F 30.14 in Calm     87% 0.00 in 23.00 W/m2
16:37 46.4 °F 42.8 °F 30.14 in Calm     87% 0.00 in 21.00 W/m2
16:42 46.3 °F 42.7 °F 30.14 in Calm     87% 0.00 in 16.00 W/m2
16:47 46.2 °F 42.5 °F 30.14 in Calm     87% 0.00 in 14.00 W/m2
16:52 46.1 °F 42.5 °F 30.14 in Calm     87% 0.00 in 12.00 W/m2
16:57 45.9 °F 42.3 °F 30.14 in Calm     87% 0.00 in 9.00 W/m2
17:02 45.7 °F 42.1 °F 30.14 in Calm     87% 0.00 in 5.00 W/m2
17:07 45.5 °F 41.9 °F 30.14 in Calm   1.0 mph 87% 0.00 in 0.00 W/m2
17:12 45.3 °F 41.7 °F 30.14 in Calm     87% 0.00 in 0.00 W/m2
17:17 45.1 °F 41.5 °F 30.14 in Calm     87% 0.00 in 0.00 W/m2
17:22 44.9 °F 41.3 °F 30.14 in Calm     87% 0.00 in 0.00 W/m2
17:27 44.7 °F 41.1 °F 30.14 in Calm     87% 0.00 in 0.00 W/m2
17:32 44.5 °F 40.9 °F 30.14 in Calm     87% 0.00 in 0.00 W/m2
17:38 44.4 °F 40.8 °F 30.14 in Calm     87% 0.00 in 0.00 W/m2
17:43 44.2 °F 40.6 °F 30.14 in Calm     87% 0.00 in 0.00 W/m2
17:48 44.0 °F 40.4 °F 30.14 in Calm     87% 0.00 in 0.00 W/m2
17:53 43.8 °F 40.5 °F 30.14 in Calm     88% 0.00 in 0.00 W/m2
17:58 43.6 °F 40.3 °F 30.14 in Calm     88% 0.00 in 0.00 W/m2
18:03 43.2 °F 39.9 °F 30.14 in Calm     88% 0.00 in 0.00 W/m2
18:08 43.0 °F 39.7 °F 30.14 in Calm     88% 0.00 in 0.00 W/m2
18:13 42.9 °F 39.6 °F 30.14 in Calm     88% 0.00 in 0.00 W/m2
18:18 42.7 °F 39.4 °F 30.14 in Calm     88% 0.00 in 0.00 W/m2
18:23 42.6 °F 39.3 °F 30.15 in Calm     88% 0.00 in 0.00 W/m2
18:28 42.5 °F 39.2 °F 30.15 in Calm     88% 0.00 in 0.00 W/m2
18:33 42.4 °F 39.1 °F 30.15 in Calm     88% 0.00 in 0.00 W/m2
18:38 42.4 °F 39.1 °F 30.15 in Calm     88% 0.00 in 0.00 W/m2
18:43 42.3 °F 39.0 °F 30.15 in Calm     88% 0.00 in 0.00 W/m2
18:48 42.2 °F 38.9 °F 30.15 in Calm     88% 0.00 in 0.00 W/m2
18:52 42.0 °F 38.7 °F 30.15 in Calm     88% 0.00 in 0.00 W/m2
18:57 41.9 °F 38.6 °F 30.15 in Calm     88% 0.00 in 0.00 W/m2
19:02 41.7 °F 38.4 °F 30.15 in Calm     88% 0.00 in 0.00 W/m2
19:07 41.5 °F 38.2 °F 30.16 in Calm     88% 0.00 in 0.00 W/m2
19:16 41.3 °F 38.0 °F 30.16 in Calm     88% 0.00 in 0.00 W/m2
19:20 41.2 °F 37.9 °F 30.16 in Calm     88% 0.00 in 0.00 W/m2
19:21 41.2 °F 37.9 °F 30.16 in Calm     88% 0.00 in 0.00 W/m2
19:23 41.2 °F 37.9 °F 30.16 in Calm     88% 0.00 in 0.00 W/m2
19:26 41.2 °F 37.9 °F 30.16 in Calm     88% 0.00 in 0.00 W/m2
19:29 41.1 °F 37.8 °F 30.16 in Calm     88% 0.00 in 0.00 W/m2
19:31 41.1 °F 37.8 °F 30.16 in Calm     88% 0.00 in 0.00 W/m2
19:36 41.0 °F 38.0 °F 30.16 in Calm     89% 0.00 in 0.00 W/m2
19:41 40.8 °F 37.8 °F 30.16 in Calm     89% 0.00 in 0.00 W/m2
19:46 40.8 °F 37.5 °F 30.16 in Calm     88% 0.00 in 0.00 W/m2
19:51 40.7 °F 37.4 °F 30.16 in Calm     88% 0.00 in 0.00 W/m2
19:56 40.6 °F 37.6 °F 30.16 in Calm     89% 0.00 in 0.00 W/m2
20:01 40.5 °F 37.5 °F 30.16 in Calm     89% 0.00 in 0.00 W/m2
20:06 40.3 °F 37.3 °F 30.16 in Calm     89% 0.00 in 0.00 W/m2
20:11 40.1 °F 36.8 °F 30.16 in Calm     88% 0.00 in 0.00 W/m2
20:16 40.0 °F 36.7 °F 30.17 in Calm     88% 0.00 in 0.00 W/m2
20:21 40.0 °F 36.7 °F 30.16 in Calm     88% 0.00 in 0.00 W/m2
20:26 40.0 °F 37.0 °F 30.16 in Calm     89% 0.00 in 0.00 W/m2
20:31 40.0 °F 37.0 °F 30.16 in Calm     89% 0.00 in 0.00 W/m2
20:36 39.9 °F 36.9 °F 30.17 in Calm     89% 0.00 in 0.00 W/m2
20:41 39.9 °F 36.9 °F 30.17 in Calm     89% 0.00 in 0.00 W/m2
20:46 39.9 °F 36.9 °F 30.17 in Calm     89% 0.00 in 0.00 W/m2
20:51 39.9 °F 36.9 °F 30.17 in Calm     89% 0.00 in 0.00 W/m2
20:56 40.0 °F 37.0 °F 30.17 in Calm     89% 0.00 in 0.00 W/m2
21:01 40.1 °F 37.1 °F 30.17 in Calm     89% 0.00 in 0.00 W/m2
21:06 40.2 °F 37.2 °F 30.17 in Calm     89% 0.00 in 0.00 W/m2
21:11 40.3 °F 37.3 °F 30.17 in Calm     89% 0.00 in 0.00 W/m2
21:16 40.4 °F 37.4 °F 30.17 in Calm     89% 0.00 in 0.00 W/m2
21:22 40.5 °F 37.5 °F 30.17 in Calm     89% 0.00 in 0.00 W/m2
21:27 40.6 °F 37.6 °F 30.17 in Calm     89% 0.00 in 0.00 W/m2
21:32 40.7 °F 37.7 °F 30.17 in Calm     89% 0.00 in 0.00 W/m2
21:37 40.7 °F 37.7 °F 30.17 in Calm     89% 0.00 in 0.00 W/m2
21:42 40.7 °F 37.7 °F 30.17 in Calm     89% 0.00 in 0.00 W/m2
21:47 40.7 °F 37.7 °F 30.17 in Calm     89% 0.00 in 0.00 W/m2
21:52 40.6 °F 37.6 °F 30.17 in Calm     89% 0.00 in 0.00 W/m2
21:57 40.6 °F 37.6 °F 30.17 in Calm   2.0 mph 89% 0.00 in 0.00 W/m2
21:59 40.6 °F 37.6 °F 30.17 in Calm   2.0 mph 89% 0.00 in 0.00 W/m2
22:04 40.6 °F 37.6 °F 30.17 in Calm     89% 0.00 in 0.00 W/m2
22:09 40.6 °F 37.6 °F 30.17 in Calm     89% 0.00 in 0.00 W/m2
22:15 40.5 °F 37.5 °F 30.17 in Calm     89% 0.00 in 0.00 W/m2
22:20 40.5 °F 37.5 °F 30.17 in Calm   2.0 mph 89% 0.00 in 0.00 W/m2
22:25 40.5 °F 37.5 °F 30.17 in Calm   5.0 mph 89% 0.00 in 0.00 W/m2
22:30 40.5 °F 37.5 °F 30.17 in Calm     89% 0.00 in 0.00 W/m2
22:35 40.5 °F 37.5 °F 30.17 in Calm   5.0 mph 89% 0.00 in 0.00 W/m2
22:40 40.5 °F 37.5 °F 30.17 in SSE 7.0 mph 7.0 mph 89% 0.00 in 0.00 W/m2
22:45 40.5 °F 37.5 °F 30.17 in Calm   8.0 mph 89% 0.00 in 0.00 W/m2
22:50 40.5 °F 37.5 °F 30.17 in Calm   6.0 mph 89% 0.00 in 0.00 W/m2
22:55 40.5 °F 37.5 °F 30.17 in Calm   5.0 mph 89% 0.00 in 0.00 W/m2
23:00 40.6 °F 37.6 °F 30.17 in Calm   7.0 mph 89% 0.00 in 0.00 W/m2
23:05 40.7 °F 37.7 °F 30.17 in Calm   8.0 mph 89% 0.00 in 0.00 W/m2
23:10 40.7 °F 37.7 °F 30.17 in Calm   1.0 mph 89% 0.00 in 0.00 W/m2
23:15 40.7 °F 37.7 °F 30.16 in Calm     89% 0.00 in 0.00 W/m2
23:20 40.8 °F 37.8 °F 30.16 in Calm     89% 0.00 in 0.00 W/m2
23:25 40.8 °F 37.8 °F 30.16 in Calm     89% 0.00 in 0.00 W/m2
23:30 40.9 °F 37.9 °F 30.16 in Calm   6.0 mph 89% 0.00 in 0.00 W/m2
23:35 40.9 °F 37.9 °F 30.16 in Calm   5.0 mph 89% 0.00 in 0.00 W/m2
23:40 40.9 °F 37.9 °F 30.17 in Calm   6.0 mph 89% 0.00 in 0.00 W/m2
23:45 40.9 °F 37.9 °F 30.16 in Calm   8.0 mph 89% 0.00 in 0.00 W/m2
23:47 40.9 °F 37.9 °F 30.17 in Calm     89% 0.00 in 0.00 W/m2
23:52 40.9 °F 37.9 °F 30.17 in Calm     89% 0.00 in 0.00 W/m2
23:57 40.9 °F 37.9 °F 30.17 in Calm     89% 0.00 in 0.00 W/m2
Foresthill Weather
 WU-history PHP script courtesy of   Juneau County Weather.
powered by Cumulus v1.9.3 (1059)
Ambient Weather VWS v14.00
Top Contact Website Map Copyright © 2007 - 2018 Foresthillweather.com Never base important decisions on this or any weather information obtained from the Internet